Time;durP1;ratioP1;P1;durP2;ratioP2;P2;SDS_P1;SDS_P2;PMS_P1;PMS_P2;Temp;Humidity;BMP_temperature;BMP_pressure;BME280_temperature;BME280_humidity;BME280_pressure;Samples;Min_cycle;Max_cycle;Signal;HPM_P1;HPM_P2
2023/12/16 00:00:08;;;;;;;6.00;5.40;;;1.80;99.90;;;;;;5024390;28;20763;-63
2023/12/16 00:02:35;;;;;;;6.07;5.57;;;1.80;99.90;;;;;;5014906;28;20203;-63
2023/12/16 00:05:02;;;;;;;5.73;5.33;;;1.80;99.90;;;;;;5014386;28;20228;-64
2023/12/16 00:07:29;;;;;;;5.90;5.40;;;1.80;99.90;;;;;;5014430;28;20206;-65
2023/12/16 00:09:56;;;;;;;5.27;4.67;;;1.70;99.90;;;;;;5014868;28;20256;-64
2023/12/16 00:12:25;;;;;;;6.00;5.40;;;1.70;99.90;;;;;;5013205;28;20204;-65
2023/12/16 00:14:52;;;;;;;6.20;5.03;;;1.70;99.90;;;;;;5006445;28;20783;-64
2023/12/16 00:17:19;;;;;;;6.43;5.23;;;1.70;99.90;;;;;;5013343;28;20205;-64
2023/12/16 00:19:46;;;;;;;7.87;5.30;;;1.80;99.90;;;;;;5011721;28;20253;-64
2023/12/16 00:22:13;;;;;;;6.27;5.50;;;1.80;99.90;;;;;;5012169;28;20209;-65
2023/12/16 00:24:41;;;;;;;7.40;6.03;;;1.80;99.90;;;;;;5013035;28;20204;-64
2023/12/16 00:27:08;;;;;;;6.10;5.00;;;1.80;99.90;;;;;;5029342;28;20639;-63
2023/12/16 00:29:36;;;;;;;7.40;5.20;;;1.80;99.90;;;;;;5032202;28;20291;-64
2023/12/16 00:32:03;;;;;;;6.07;4.90;;;1.80;99.90;;;;;;5019483;28;20256;-64
2023/12/16 00:34:33;;;;;;;5.43;4.70;;;1.70;99.90;;;;;;5012714;28;20229;-64
2023/12/16 00:37:00;;;;;;;6.90;5.63;;;1.60;99.90;;;;;;5012688;28;20277;-64
2023/12/16 00:39:27;;;;;;;4.47;4.03;;;1.50;99.90;;;;;;5015473;28;20644;-64
2023/12/16 00:41:54;;;;;;;6.90;5.20;;;1.50;99.90;;;;;;5009933;28;20336;-64
2023/12/16 00:44:21;;;;;;;5.70;5.13;;;1.50;99.90;;;;;;5012150;28;20194;-64
2023/12/16 00:46:51;;;;;;;6.83;5.10;;;1.40;99.90;;;;;;5012342;28;20264;-64
2023/12/16 00:49:18;;;;;;;8.10;6.17;;;1.50;99.90;;;;;;5012138;28;20222;-65
2023/12/16 00:51:45;;;;;;;7.90;7.03;;;1.40;99.90;;;;;;5010043;28;20201;-62
2023/12/16 00:54:12;;;;;;;10.87;6.67;;;1.40;99.90;;;;;;5017614;28;20216;-62
2023/12/16 00:56:39;;;;;;;7.80;5.93;;;1.40;99.90;;;;;;5012212;28;20208;-61
2023/12/16 00:59:06;;;;;;;6.73;5.37;;;1.40;99.90;;;;;;5009776;28;20708;-61
2023/12/16 01:01:33;;;;;;;8.57;6.37;;;1.40;99.90;;;;;;5010564;28;20676;-62
2023/12/16 01:04:01;;;;;;;9.63;6.23;;;1.40;99.90;;;;;;5011348;28;20669;-62
2023/12/16 01:06:28;;;;;;;7.93;6.07;;;1.30;99.90;;;;;;5012187;28;20259;-62
2023/12/16 01:08:55;;;;;;;7.30;5.40;;;1.30;99.90;;;;;;5031491;28;20585;-62
2023/12/16 01:11:22;;;;;;;8.07;5.87;;;1.30;99.90;;;;;;5024900;28;20212;-62
2023/12/16 01:13:49;;;;;;;7.53;4.57;;;1.40;99.90;;;;;;5011438;28;20271;-62
2023/12/16 01:16:16;;;;;;;6.80;4.93;;;1.40;99.90;;;;;;5011784;28;20204;-62
2023/12/16 01:18:43;;;;;;;7.37;5.47;;;1.40;99.90;;;;;;5011295;28;20616;-62
2023/12/16 01:21:12;;;;;;;9.13;5.97;;;1.40;99.90;;;;;;5015758;28;20241;-63
2023/12/16 01:23:39;;;;;;;8.53;5.50;;;1.50;99.90;;;;;;5011648;28;20197;-62
2023/12/16 01:26:06;;;;;;;5.17;4.27;;;1.50;99.90;;;;;;5011881;28;20263;-62
2023/12/16 01:28:33;;;;;;;6.83;4.23;;;1.60;99.90;;;;;;5011285;28;20230;-63
2023/12/16 01:31:00;;;;;;;6.53;4.77;;;1.60;99.90;;;;;;5011635;28;20206;-62
2023/12/16 01:33:27;;;;;;;6.60;4.53;;;1.60;99.90;;;;;;5009525;28;20317;-65
2023/12/16 01:35:54;;;;;;;5.00;4.47;;;1.60;99.90;;;;;;5011586;28;20275;-66
2023/12/16 01:38:22;;;;;;;4.90;4.40;;;1.70;99.90;;;;;;5011264;28;20240;-67
2023/12/16 01:40:49;;;;;;;9.43;4.17;;;1.60;99.90;;;;;;5009564;28;20201;-68
2023/12/16 01:43:16;;;;;;;4.90;4.50;;;1.60;99.90;;;;;;5011632;28;20756;-67
2023/12/16 01:45:43;;;;;;;5.23;4.30;;;1.60;99.90;;;;;;5010270;28;20206;-69
2023/12/16 01:48:12;;;;;;;5.50;5.10;;;1.60;99.90;;;;;;5015072;28;20235;-68
2023/12/16 01:50:39;;;;;;;6.03;4.63;;;1.60;99.90;;;;;;5013542;28;20784;-68
2023/12/16 01:53:07;;;;;;;5.03;4.53;;;1.50;99.90;;;;;;5010124;28;20259;-71
2023/12/16 01:55:36;;;;;;;6.27;4.77;;;1.50;99.90;;;;;;5011360;28;20225;-69
2023/12/16 01:58:05;;;;;;;5.40;4.90;;;1.50;99.90;;;;;;5010200;28;20220;-68
2023/12/16 02:00:33;;;;;;;7.20;4.60;;;1.50;99.90;;;;;;5009763;28;20291;-64
2023/12/16 02:03:00;;;;;;;4.63;4.30;;;1.40;99.90;;;;;;5024165;28;20227;-65
2023/12/16 02:05:27;;;;;;;6.67;5.03;;;1.40;99.90;;;;;;5031213;28;20204;-63
2023/12/16 02:07:54;;;;;;;4.57;3.87;;;1.40;99.90;;;;;;5030731;28;20208;-67
2023/12/16 02:10:21;;;;;;;4.47;4.07;;;1.40;99.90;;;;;;5031046;28;20212;-70
2023/12/16 02:12:50;;;;;;;3.73;3.43;;;1.30;99.90;;;;;;5010672;28;20312;-65
2023/12/16 02:15:17;;;;;;;5.20;4.67;;;1.30;99.90;;;;;;5011034;28;20631;-68
2023/12/16 02:17:44;;;;;;;5.57;3.87;;;1.20;99.90;;;;;;5010992;28;20208;-66
2023/12/16 02:20:14;;;;;;;6.30;4.60;;;1.20;99.90;;;;;;5011289;28;20620;-67
2023/12/16 02:22:41;;;;;;;5.47;4.93;;;1.10;99.90;;;;;;5009944;28;20231;-64
2023/12/16 02:25:11;;;;;;;6.50;5.17;;;1.10;99.90;;;;;;5010533;28;20209;-67
2023/12/16 02:27:38;;;;;;;7.47;5.87;;;1.10;99.90;;;;;;5012691;28;20233;-61
2023/12/16 02:30:07;;;;;;;8.77;5.93;;;1.10;99.90;;;;;;5010249;28;20808;-61
2023/12/16 02:32:34;;;;;;;6.93;5.27;;;1.00;99.90;;;;;;5010833;28;20620;-61
2023/12/16 02:35:01;;;;;;;6.83;5.70;;;1.00;99.90;;;;;;5010904;28;20269;-62
2023/12/16 02:37:28;;;;;;;6.73;4.97;;;1.00;99.90;;;;;;5008187;28;20832;-62
2023/12/16 02:39:55;;;;;;;7.93;5.90;;;1.00;99.90;;;;;;5002966;28;20222;-60
2023/12/16 02:42:23;;;;;;;9.13;5.73;;;1.10;99.90;;;;;;5019514;28;20773;-60
2023/12/16 02:44:50;;;;;;;6.53;5.33;;;1.10;99.90;;;;;;5033767;28;20722;-61
2023/12/16 02:47:17;;;;;;;9.20;5.70;;;1.00;99.90;;;;;;5034031;28;20251;-61
2023/12/16 02:49:45;;;;;;;6.07;5.00;;;1.10;99.90;;;;;;5020180;28;20794;-61
2023/12/16 02:52:12;;;;;;;5.47;4.57;;;1.00;99.90;;;;;;5014133;28;20577;-66
2023/12/16 02:54:39;;;;;;;6.83;4.67;;;1.10;99.90;;;;;;5014263;28;20229;-64
2023/12/16 02:57:06;;;;;;;6.87;4.77;;;1.10;99.90;;;;;;5014507;28;20208;-62
2023/12/16 02:59:35;;;;;;;7.73;5.30;;;1.00;99.90;;;;;;5029000;28;20255;-61
2023/12/16 03:02:02;;;;;;;5.50;4.90;;;1.00;99.90;;;;;;5025246;28;20287;-62
2023/12/16 03:04:28;;;;;;;7.27;4.93;;;1.00;99.90;;;;;;5012445;28;20197;-62
2023/12/16 03:06:56;;;;;;;4.50;4.03;;;0.90;99.90;;;;;;5014020;28;20630;-62
2023/12/16 03:09:23;;;;;;;6.53;4.17;;;0.90;99.90;;;;;;5013590;28;20229;-62
2023/12/16 03:11:51;;;;;;;7.20;4.63;;;0.80;99.90;;;;;;5014569;28;20208;-61
2023/12/16 03:14:18;;;;;;;7.90;4.93;;;0.80;99.90;;;;;;5015376;28;20231;-64
2023/12/16 03:16:46;;;;;;;7.87;4.40;;;0.80;99.90;;;;;;5015038;28;20251;-63
2023/12/16 03:19:13;;;;;;;4.93;4.43;;;0.80;99.90;;;;;;5013453;28;20230;-62
2023/12/16 03:21:40;;;;;;;6.00;3.60;;;0.80;99.90;;;;;;5013900;28;20259;-61
2023/12/16 03:24:07;;;;;;;5.20;4.17;;;0.80;99.90;;;;;;5013836;28;20696;-62
2023/12/16 03:26:35;;;;;;;3.97;3.67;;;0.80;99.90;;;;;;5012293;28;20868;-65
2023/12/16 03:29:02;;;;;;;3.60;3.30;;;0.80;99.90;;;;;;5012561;28;20263;-64
2023/12/16 03:31:29;;;;;;;4.60;3.70;;;0.80;99.90;;;;;;5023489;28;20204;-65
2023/12/16 03:33:57;;;;;;;5.57;3.53;;;0.70;99.90;;;;;;5033485;28;20291;-65
2023/12/16 03:36:24;;;;;;;4.57;3.53;;;0.70;99.90;;;;;;5026187;28;20209;-64
2023/12/16 03:38:52;;;;;;;3.70;3.17;;;0.80;99.90;;;;;;5011771;28;20585;-64
2023/12/16 03:41:19;;;;;;;3.37;3.07;;;0.90;99.90;;;;;;5012980;28;20209;-65
2023/12/16 03:43:46;;;;;;;3.00;2.80;;;0.80;99.90;;;;;;5012604;28;20636;-65
2023/12/16 03:46:13;;;;;;;4.27;2.53;;;0.80;99.90;;;;;;5014237;28;20205;-66
2023/12/16 03:48:40;;;;;;;2.60;2.40;;;0.80;99.90;;;;;;5032678;28;20220;-64
2023/12/16 03:51:08;;;;;;;5.10;3.73;;;0.80;99.90;;;;;;5030410;28;20211;-64
2023/12/16 03:53:35;;;;;;;3.73;2.73;;;0.80;99.90;;;;;;5015776;28;20200;-65
2023/12/16 03:56:02;;;;;;;3.93;2.60;;;0.80;99.90;;;;;;5012284;28;20217;-64
2023/12/16 03:58:29;;;;;;;1.77;1.67;;;0.80;99.90;;;;;;5012143;28;20228;-64
2023/12/16 04:00:57;;;;;;;2.70;2.47;;;0.80;99.90;;;;;;5013101;28;20261;-65
2023/12/16 04:03:23;;;;;;;3.47;2.53;;;0.70;99.90;;;;;;5011420;28;20669;-66
2023/12/16 04:05:50;;;;;;;5.00;2.23;;;0.70;99.90;;;;;;5010006;28;20206;-65
2023/12/16 04:08:19;;;;;;;2.63;2.43;;;0.70;99.90;;;;;;5012746;28;20253;-65
2023/12/16 04:10:46;;;;;;;2.60;2.40;;;0.80;99.90;;;;;;5013133;28;20242;-64
2023/12/16 04:13:15;;;;;;;4.93;2.53;;;0.70;99.90;;;;;;5013081;28;20743;-64
2023/12/16 04:15:42;;;;;;;3.07;2.80;;;0.80;99.90;;;;;;5012863;28;20316;-64
2023/12/16 04:18:08;;;;;;;2.43;2.23;;;0.80;99.90;;;;;;5011153;28;20291;-64
2023/12/16 04:20:35;;;;;;;3.60;3.30;;;0.80;99.90;;;;;;5012761;28;20254;-64
2023/12/16 04:23:02;;;;;;;5.57;2.63;;;0.80;99.90;;;;;;5013064;28;20202;-64
2023/12/16 04:25:31;;;;;;;2.63;2.30;;;0.80;99.90;;;;;;5012824;28;20823;-64
2023/12/16 04:27:57;;;;;;;3.70;2.80;;;0.70;99.90;;;;;;5012219;28;20599;-65
2023/12/16 04:30:24;;;;;;;2.83;2.53;;;0.60;99.90;;;;;;5010655;28;20218;-64
2023/12/16 04:32:52;;;;;;;2.97;2.30;;;0.60;99.90;;;;;;5012527;28;20267;-64
2023/12/16 04:35:18;;;;;;;2.67;1.93;;;0.50;99.90;;;;;;5012590;28;20603;-64
2023/12/16 04:37:46;;;;;;;3.53;3.00;;;0.50;99.90;;;;;;5020394;28;20212;-65
2023/12/16 04:40:13;;;;;;;2.40;2.30;;;0.60;99.90;;;;;;5032367;28;20259;-64
2023/12/16 04:42:43;;;;;;;2.80;2.17;;;0.50;99.90;;;;;;5011868;28;20727;-65
2023/12/16 04:45:10;;;;;;;1.93;1.83;;;0.50;99.90;;;;;;5010167;28;20204;-64
2023/12/16 04:47:37;;;;;;;2.20;2.10;;;0.50;99.90;;;;;;5016814;28;20549;-65
2023/12/16 04:50:06;;;;;;;2.07;1.97;;;0.50;99.90;;;;;;5032221;28;20695;-64
2023/12/16 04:52:32;;;;;;;1.40;1.40;;;0.50;99.90;;;;;;5032083;28;20257;-64
2023/12/16 04:54:59;;;;;;;3.70;2.33;;;0.50;99.90;;;;;;5022340;28;20263;-64
2023/12/16 04:57:26;;;;;;;2.27;2.10;;;0.50;99.90;;;;;;5011722;28;20225;-68
2023/12/16 04:59:55;;;;;;;1.23;1.17;;;0.50;99.90;;;;;;5012140;28;20228;-64
2023/12/16 05:02:22;;;;;;;2.47;2.13;;;0.50;99.90;;;;;;5012316;28;20253;-64
2023/12/16 05:04:49;;;;;;;2.93;1.90;;;0.40;99.90;;;;;;5012177;28;20193;-65
2023/12/16 05:07:16;;;;;;;1.67;1.57;;;0.40;99.90;;;;;;5010564;28;20208;-65
2023/12/16 05:09:43;;;;;;;1.70;1.60;;;0.40;99.90;;;;;;5011563;28;20577;-64
2023/12/16 05:12:10;;;;;;;3.60;2.40;;;0.40;99.90;;;;;;5011994;28;20210;-64
2023/12/16 05:14:39;;;;;;;2.50;2.30;;;0.40;99.90;;;;;;5012204;28;20208;-64
2023/12/16 05:17:07;;;;;;;3.53;2.23;;;0.50;99.90;;;;;;5012233;28;20265;-64
2023/12/16 05:19:34;;;;;;;4.63;2.87;;;0.40;99.90;;;;;;5011357;28;20221;-65
2023/12/16 05:22:01;;;;;;;2.57;2.27;;;0.40;99.90;;;;;;5024579;28;20199;-64
2023/12/16 05:24:28;;;;;;;3.60;3.30;;;0.40;99.90;;;;;;5031608;28;20212;-65
2023/12/16 05:26:55;;;;;;;6.13;3.30;;;0.40;99.90;;;;;;5031581;28;20209;-65
2023/12/16 05:29:22;;;;;;;3.00;2.80;;;0.30;99.90;;;;;;5031401;28;20283;-64
2023/12/16 05:31:52;;;;;;;3.13;2.83;;;0.40;99.90;;;;;;5023547;28;20280;-64
2023/12/16 05:34:20;;;;;;;3.87;3.17;;;0.40;99.90;;;;;;5011690;28;20200;-65
2023/12/16 05:36:52;;;;;;;3.97;2.83;;;0.40;99.90;;;;;;5018416;28;20322;-65
2023/12/16 05:39:19;;;;;;;3.63;2.80;;;0.30;99.90;;;;;;5024751;28;20279;-64
2023/12/16 05:41:46;;;;;;;3.70;3.33;;;0.40;99.90;;;;;;5009164;28;20232;-64
2023/12/16 05:44:14;;;;;;;3.50;3.20;;;0.30;99.90;;;;;;5010254;28;20631;-64
2023/12/16 05:46:41;;;;;;;2.90;2.70;;;0.30;99.90;;;;;;5008786;28;20680;-64
2023/12/16 05:49:07;;;;;;;2.90;2.30;;;0.30;99.90;;;;;;5010030;28;20247;-64
2023/12/16 05:51:41;;;;;;;3.60;2.73;;;0.30;99.90;;;;;;5010583;28;20249;-64
2023/12/16 05:54:08;;;;;;;3.60;2.87;;;0.30;99.90;;;;;;5010139;28;20206;-63
2023/12/16 05:56:35;;;;;;;4.33;3.27;;;0.40;99.90;;;;;;5010456;28;20318;-65
2023/12/16 05:59:02;;;;;;;3.00;2.73;;;0.40;99.90;;;;;;5010361;28;20221;-64
2023/12/16 06:01:29;;;;;;;3.00;2.80;;;0.40;99.90;;;;;;5010647;28;20291;-64
2023/12/16 06:03:56;;;;;;;2.83;2.30;;;0.40;99.90;;;;;;5005296;28;20269;-64
2023/12/16 06:06:23;;;;;;;2.93;2.73;;;0.40;99.90;;;;;;5011168;28;20204;-65
2023/12/16 06:08:53;;;;;;;3.57;2.67;;;0.30;99.90;;;;;;5008869;28;20224;-64
2023/12/16 06:11:22;;;;;;;2.90;2.70;;;0.30;99.90;;;;;;5010772;28;20240;-64
2023/12/16 06:13:50;;;;;;;3.37;3.07;;;0.30;99.90;;;;;;5010532;28;20280;-65
2023/12/16 06:16:17;;;;;;;3.00;2.80;;;0.30;99.90;;;;;;5010069;28;20280;-64
2023/12/16 06:18:44;;;;;;;3.10;2.80;;;0.30;99.90;;;;;;5010404;28;20607;-64
2023/12/16 06:21:11;;;;;;;3.90;2.77;;;0.30;99.90;;;;;;5010079;28;20204;-66
2023/12/16 06:23:38;;;;;;;2.87;2.67;;;0.30;99.90;;;;;;5014396;28;20201;-64
2023/12/16 06:26:07;;;;;;;5.03;4.47;;;0.30;99.90;;;;;;5013593;28;20256;-66
2023/12/16 06:28:34;;;;;;;5.57;4.40;;;0.20;99.90;;;;;;5013016;28;20228;-64
2023/12/16 06:31:00;;;;;;;7.37;5.50;;;0.10;99.90;;;;;;5009644;28;20627;-65
2023/12/16 06:33:27;;;;;;;10.93;6.53;;;0.10;99.90;;;;;;5009944;28;20750;-66
2023/12/16 06:35:55;;;;;;;8.37;6.43;;;0.00;99.90;;;;;;5013374;28;20616;-63
2023/12/16 06:38:22;;;;;;;7.87;4.93;;;0.00;99.90;;;;;;5012978;28;20238;-65
2023/12/16 06:40:50;;;;;;;5.43;4.90;;;0.00;99.90;;;;;;5011431;28;20271;-64
2023/12/16 06:43:18;;;;;;;4.23;3.63;;;0.10;99.90;;;;;;5010183;28;20596;-64
2023/12/16 06:45:44;;;;;;;4.23;3.83;;;0.10;99.90;;;;;;5010765;28;20198;-62
2023/12/16 06:48:11;;;;;;;3.77;3.47;;;0.10;99.90;;;;;;5011676;28;20759;-63
2023/12/16 06:50:38;;;;;;;3.80;2.80;;;0.10;99.90;;;;;;5013374;28;20256;-63
2023/12/16 06:53:05;;;;;;;3.40;2.67;;;0.10;99.90;;;;;;5009310;28;20205;-62
2023/12/16 06:55:32;;;;;;;3.20;2.77;;;0.20;99.90;;;;;;5010889;28;20221;-62
2023/12/16 06:57:59;;;;;;;3.57;2.60;;;0.30;99.90;;;;;;5011028;28;20224;-62
2023/12/16 07:00:27;;;;;;;3.80;2.93;;;0.50;99.90;;;;;;5013564;28;20202;-62
2023/12/16 07:02:54;;;;;;;2.77;2.57;;;0.30;99.90;;;;;;5013752;28;20253;-62
2023/12/16 07:05:21;;;;;;;5.00;3.63;;;0.30;99.90;;;;;;5009297;28;20232;-63
2023/12/16 07:07:48;;;;;;;5.13;3.97;;;0.30;99.90;;;;;;5012178;28;20751;-62
2023/12/16 07:10:15;;;;;;;4.83;4.43;;;0.30;99.90;;;;;;5012229;28;20200;-62
2023/12/16 07:12:43;;;;;;;3.57;3.27;;;0.30;99.90;;;;;;5010891;28;20223;-62
2023/12/16 07:15:10;;;;;;;4.13;3.83;;;0.30;99.90;;;;;;5013207;28;20201;-63
2023/12/16 07:17:40;;;;;;;4.20;3.80;;;0.30;99.90;;;;;;5012780;28;20288;-62
2023/12/16 07:20:08;;;;;;;3.87;3.50;;;0.30;99.90;;;;;;5009263;28;20226;-62
2023/12/16 07:22:35;;;;;;;4.00;3.30;;;0.30;99.90;;;;;;5012489;28;20200;-63
2023/12/16 07:25:02;;;;;;;4.30;3.90;;;0.20;99.90;;;;;;5012219;28;20202;-63
2023/12/16 07:27:29;;;;;;;5.73;3.73;;;0.20;99.90;;;;;;5011974;28;20227;-62
2023/12/16 07:29:56;;;;;;;4.93;4.20;;;0.20;99.90;;;;;;5012793;28;20218;-62
2023/12/16 07:32:24;;;;;;;4.50;4.13;;;0.20;99.90;;;;;;5013148;28;20202;-63
2023/12/16 07:34:52;;;;;;;5.87;5.07;;;0.30;99.90;;;;;;5012733;28;20231;-62
2023/12/16 07:37:19;;;;;;;5.93;4.90;;;0.30;99.90;;;;;;5012095;28;20228;-63
2023/12/16 07:39:46;;;;;;;5.27;4.43;;;0.30;99.90;;;;;;5008929;28;20255;-63
2023/12/16 07:42:14;;;;;;;5.27;4.03;;;0.30;99.90;;;;;;5012217;28;20213;-62
2023/12/16 07:44:41;;;;;;;3.07;2.77;;;0.30;99.90;;;;;;5009790;28;20265;-62
2023/12/16 07:47:08;;;;;;;5.10;4.20;;;0.30;99.90;;;;;;5010128;28;20209;-63
2023/12/16 07:49:34;;;;;;;5.60;3.70;;;0.30;99.90;;;;;;5008485;28;20654;-61
2023/12/16 07:52:03;;;;;;;6.20;4.27;;;0.30;99.90;;;;;;5008584;28;20200;-63
2023/12/16 07:54:32;;;;;;;6.27;4.57;;;0.40;99.90;;;;;;5012156;28;20213;-63
2023/12/16 07:56:59;;;;;;;4.27;3.90;;;0.40;99.90;;;;;;5008971;28;20217;-63
2023/12/16 07:59:26;;;;;;;5.90;5.10;;;0.50;99.90;;;;;;5010976;28;20220;-62
2023/12/16 08:01:54;;;;;;;4.80;3.40;;;0.50;99.90;;;;;;5012895;28;20205;-63
2023/12/16 08:04:21;;;;;;;3.73;3.43;;;0.70;99.90;;;;;;5013066;28;20738;-63
2023/12/16 08:06:48;;;;;;;5.10;3.40;;;0.70;99.90;;;;;;5009477;28;20204;-63
2023/12/16 08:09:16;;;;;;;3.73;3.43;;;0.80;99.90;;;;;;5009797;28;20228;-61
2023/12/16 08:11:43;;;;;;;4.97;3.43;;;0.90;99.90;;;;;;5007154;28;20281;-61
2023/12/16 08:14:11;;;;;;;3.90;3.60;;;1.00;99.90;;;;;;5002862;28;20209;-63
2023/12/16 08:16:38;;;;;;;3.40;3.10;;;1.10;99.90;;;;;;5010209;28;20225;-63
2023/12/16 08:19:05;;;;;;;5.00;3.30;;;1.30;99.90;;;;;;5012210;28;20220;-62
2023/12/16 08:21:32;;;;;;;4.27;3.50;;;1.50;99.90;;;;;;5021004;28;20562;-63
2023/12/16 08:23:59;;;;;;;3.70;3.40;;;1.80;99.90;;;;;;5011242;28;20288;-63
2023/12/16 08:26:28;;;;;;;3.57;2.97;;;2.00;99.90;;;;;;5010775;28;20204;-62
2023/12/16 08:28:55;;;;;;;3.90;3.60;;;2.20;99.90;;;;;;5008562;28;20766;-63
2023/12/16 08:31:21;;;;;;;3.33;3.03;;;1.70;99.90;;;;;;5015160;28;20201;-62
2023/12/16 08:33:48;;;;;;;2.97;2.77;;;2.20;99.90;;;;;;5012019;28;20560;-62
2023/12/16 08:36:16;;;;;;;3.63;3.33;;;2.30;99.90;;;;;;5011990;28;20233;-62
2023/12/16 08:38:44;;;;;;;2.17;2.07;;;3.20;99.90;;;;;;5011530;28;20230;-62
2023/12/16 08:41:12;;;;;;;3.97;2.80;;;2.60;99.90;;;;;;5011746;28;20212;-62
2023/12/16 08:43:41;;;;;;;3.13;2.93;;;2.70;99.90;;;;;;5012280;28;20296;-63
2023/12/16 08:46:09;;;;;;;3.87;3.43;;;2.90;99.90;;;;;;5011941;28;20796;-62
2023/12/16 08:48:36;;;;;;;4.20;3.83;;;3.00;99.90;;;;;;5006899;28;20242;-62
2023/12/16 08:51:03;;;;;;;5.57;3.80;;;3.10;99.90;;;;;;5007928;28;20202;-62
2023/12/16 08:53:30;;;;;;;4.13;3.37;;;3.40;99.90;;;;;;5012294;28;20237;-63
2023/12/16 08:55:58;;;;;;;3.67;3.37;;;3.60;99.90;;;;;;5005103;28;20229;-63
2023/12/16 08:58:25;;;;;;;3.60;2.77;;;3.70;99.90;;;;;;5012574;28;20311;-63
2023/12/16 09:00:53;;;;;;;4.13;3.03;;;3.80;99.90;;;;;;5011819;28;20206;-63
2023/12/16 09:03:21;;;;;;;3.10;2.83;;;3.90;99.90;;;;;;5011832;28;20206;-62
2023/12/16 09:05:49;;;;;;;3.13;2.70;;;4.10;99.90;;;;;;5020095;28;20205;-65
2023/12/16 09:08:17;;;;;;;5.43;3.90;;;4.40;99.90;;;;;;5010598;28;20588;-65
2023/12/16 09:10:44;;;;;;;5.60;3.37;;;4.50;99.90;;;;;;5011265;28;20206;-64
2023/12/16 09:13:11;;;;;;;4.13;3.53;;;4.50;99.90;;;;;;5011843;28;20208;-64
2023/12/16 09:15:37;;;;;;;3.97;3.23;;;4.40;99.90;;;;;;5011310;28;20744;-62
2023/12/16 09:18:06;;;;;;;3.77;3.07;;;4.20;99.90;;;;;;5011347;28;20280;-62
2023/12/16 09:20:34;;;;;;;4.17;3.57;;;4.20;99.90;;;;;;5011812;28;20553;-62
2023/12/16 09:23:01;;;;;;;4.40;2.80;;;4.70;99.90;;;;;;5019167;28;20285;-63
2023/12/16 09:25:28;;;;;;;4.17;3.00;;;4.20;99.90;;;;;;5010419;28;20198;-63
2023/12/16 09:27:55;;;;;;;4.47;3.03;;;4.10;99.90;;;;;;5010436;28;20208;-64
2023/12/16 09:30:22;;;;;;;4.53;2.90;;;4.10;99.90;;;;;;5016726;28;20206;-63
2023/12/16 09:32:49;;;;;;;2.93;2.70;;;4.10;99.90;;;;;;5011406;28;20205;-63
2023/12/16 09:35:18;;;;;;;4.77;3.60;;;4.10;99.90;;;;;;5011577;28;20204;-63
2023/12/16 09:37:45;;;;;;;4.40;3.63;;;4.10;99.90;;;;;;5011608;28;20226;-63
2023/12/16 09:40:13;;;;;;;3.03;2.80;;;4.10;99.90;;;;;;5016764;28;20855;-65
2023/12/16 09:42:43;;;;;;;5.90;3.40;;;4.20;99.90;;;;;;5010543;28;20333;-65
2023/12/16 09:45:15;;;;;;;5.83;4.20;;;4.10;99.90;;;;;;5011531;28;20241;-65
2023/12/16 09:47:43;;;;;;;4.20;3.53;;;4.20;99.90;;;;;;5010627;28;20232;-65
2023/12/16 09:50:11;;;;;;;4.47;3.97;;;4.30;99.90;;;;;;5014786;28;20213;-64
2023/12/16 09:52:40;;;;;;;6.60;3.77;;;4.20;99.90;;;;;;5011757;28;20284;-65
2023/12/16 09:55:09;;;;;;;7.17;4.30;;;4.30;99.90;;;;;;5014926;28;20658;-64
2023/12/16 09:57:38;;;;;;;7.60;4.70;;;4.30;99.90;;;;;;5014288;28;20782;-64
2023/12/16 10:00:06;;;;;;;6.60;5.33;;;4.20;99.90;;;;;;5010762;28;20202;-66
2023/12/16 10:02:33;;;;;;;4.23;3.40;;;4.20;99.90;;;;;;5015333;28;20209;-65
2023/12/16 10:05:01;;;;;;;5.33;3.50;;;4.40;99.90;;;;;;5015043;28;20254;-64
2023/12/16 10:07:28;;;;;;;3.47;3.20;;;4.40;99.90;;;;;;5013690;28;20229;-65
2023/12/16 10:09:57;;;;;;;3.50;2.80;;;4.60;99.90;;;;;;5006912;28;20361;-65
2023/12/16 10:12:24;;;;;;;2.13;2.03;;;4.90;99.90;;;;;;5020370;28;20212;-63
2023/12/16 10:14:55;;;;;;;3.13;1.83;;;5.40;99.90;;;;;;5016359;28;20199;-63
2023/12/16 10:17:22;;;;;;;2.60;2.40;;;5.90;99.90;;;;;;5011553;28;20733;-62
2023/12/16 10:19:49;;;;;;;2.27;1.90;;;6.40;99.90;;;;;;5008774;28;20716;-63
2023/12/16 10:22:18;;;;;;;3.60;2.67;;;6.90;99.90;;;;;;5014549;28;20239;-64
2023/12/16 10:24:46;;;;;;;1.50;1.40;;;7.30;99.90;;;;;;5014303;28;20209;-63
2023/12/16 10:27:15;;;;;;;3.57;1.70;;;7.60;99.90;;;;;;5013968;28;20694;-62
2023/12/16 10:29:42;;;;;;;2.87;1.43;;;7.50;99.90;;;;;;5014297;28;20321;-63
2023/12/16 10:32:10;;;;;;;1.80;1.57;;;7.60;99.90;;;;;;5012032;28;20566;-63
2023/12/16 10:34:37;;;;;;;2.73;1.33;;;7.50;99.90;;;;;;5013995;28;20292;-63
2023/12/16 10:37:05;;;;;;;1.83;1.73;;;7.30;99.90;;;;;;5012523;28;20264;-63
2023/12/16 10:39:32;;;;;;;0.80;0.77;;;6.90;99.90;;;;;;5013210;28;20225;-63
2023/12/16 10:42:00;;;;;;;2.13;1.93;;;6.60;99.90;;;;;;5012573;28;20206;-63
2023/12/16 10:44:29;;;;;;;2.60;1.70;;;6.40;99.90;;;;;;5012167;28;20205;-62
2023/12/16 10:46:56;;;;;;;1.20;0.97;;;6.40;99.90;;;;;;5011375;28;20286;-63
2023/12/16 10:49:29;;;;;;;1.70;1.27;;;6.40;99.90;;;;;;5009722;28;20375;-61
2023/12/16 10:52:04;;;;;;;1.30;1.20;;;6.10;99.90;;;;;;5013641;28;20263;-61
2023/12/16 10:54:37;;;;;;;1.73;1.27;;;6.00;99.90;;;;;;5014261;28;20191;-61
2023/12/16 10:57:16;;;;;;;1.87;0.90;;;6.00;99.90;;;;;;5010702;28;20222;-62
2023/12/16 10:59:53;;;;;;;1.95;1.50;;;6.10;99.90;;;;;;5004563;28;20517;-61
2023/12/16 11:02:24;;;;;;;2.33;1.40;;;6.00;99.90;;;;;;5012369;28;20227;-61
2023/12/16 11:04:57;;;;;;;1.90;1.80;;;6.10;99.90;;;;;;5012033;28;20203;-62
2023/12/16 11:07:28;;;;;;;1.90;1.80;;;6.10;99.90;;;;;;5005732;28;20249;-69
2023/12/16 11:09:56;;;;;;;2.00;1.90;;;6.30;99.90;;;;;;5011142;28;20237;-68
2023/12/16 11:12:23;;;;;;;2.77;2.57;;;6.30;99.90;;;;;;5004621;28;20638;-64
2023/12/16 11:14:54;;;;;;;2.00;1.83;;;6.40;99.90;;;;;;5009228;28;20201;-62
2023/12/16 11:17:29;;;;;;;2.80;1.70;;;6.30;99.90;;;;;;5009769;28;20215;-61
2023/12/16 11:20:06;;;;;;;2.03;1.20;;;6.80;99.90;;;;;;5011952;28;20227;-59
2023/12/16 11:22:33;;;;;;;1.90;1.80;;;6.40;99.90;;;;;;5010612;28;20664;-62
2023/12/16 11:25:02;;;;;;;1.80;1.70;;;6.40;99.90;;;;;;5010425;28;20292;-66
2023/12/16 11:27:29;;;;;;;4.47;1.60;;;6.40;99.90;;;;;;5011632;28;20201;-63
2023/12/16 11:29:58;;;;;;;2.33;2.00;;;6.50;99.90;;;;;;5012058;28;20280;-61
2023/12/16 11:32:25;;;;;;;2.67;2.40;;;6.40;99.90;;;;;;5011162;28;20209;-63
2023/12/16 11:34:53;;;;;;;1.60;1.37;;;6.40;99.90;;;;;;5013128;28;20200;-60
2023/12/16 11:37:42;;;;;;;1.77;1.67;;;6.40;99.90;;;;;;5011404;28;20229;-60
2023/12/16 11:40:42;;;;;;;1.60;1.50;;;6.30;99.90;;;;;;5013112;28;20200;-60
2023/12/16 11:43:09;;;;;;;1.20;1.03;;;6.40;99.90;;;;;;5012499;28;20636;-60
2023/12/16 11:45:39;;;;;;;1.73;1.63;;;6.00;99.90;;;;;;5011554;28;20302;-61
2023/12/16 11:48:06;;;;;;;1.90;1.80;;;6.40;99.90;;;;;;5003084;28;20248;-60
2023/12/16 11:50:36;;;;;;;1.90;1.57;;;6.40;99.90;;;;;;5013000;28;20201;-61
2023/12/16 11:53:04;;;;;;;1.70;1.60;;;6.00;99.90;;;;;;5011511;28;20209;-61
2023/12/16 11:55:31;;;;;;;0.80;0.70;;;6.30;99.90;;;;;;5010579;28;20204;-60
2023/12/16 11:57:58;;;;;;;1.30;1.27;;;6.30;99.90;;;;;;5012235;28;20248;-60
2023/12/16 12:00:25;;;;;;;0.97;0.97;;;6.20;99.90;;;;;;5010768;28;20284;-60
2023/12/16 12:02:55;;;;;;;2.00;1.47;;;6.10;99.90;;;;;;5011958;28;20636;-59
2023/12/16 12:05:22;;;;;;;1.40;1.10;;;6.00;99.90;;;;;;5011419;28;20208;-59
2023/12/16 12:07:49;;;;;;;5.70;1.20;;;6.00;99.90;;;;;;5011156;28;20202;-62
2023/12/16 12:10:16;;;;;;;1.87;1.73;;;6.00;99.90;;;;;;5012809;28;20621;-62
2023/12/16 12:12:43;;;;;;;1.47;1.37;;;6.10;99.90;;;;;;5012020;28;20724;-61
2023/12/16 12:15:11;;;;;;;1.30;1.20;;;6.00;99.90;;;;;;5009734;28;20263;-62
2023/12/16 12:17:39;;;;;;;1.80;1.23;;;5.90;99.90;;;;;;5010562;28;20712;-62
2023/12/16 12:20:10;;;;;;;2.10;1.40;;;5.90;99.90;;;;;;5012508;28;20217;-59
2023/12/16 12:22:37;;;;;;;1.87;1.77;;;6.00;99.90;;;;;;5011765;28;20200;-60
2023/12/16 12:25:07;;;;;;;1.90;1.67;;;5.90;99.90;;;;;;5004501;28;20214;-59
2023/12/16 12:27:34;;;;;;;1.50;1.33;;;6.00;99.90;;;;;;5012285;28;20580;-59
2023/12/16 12:30:04;;;;;;;1.57;1.47;;;6.00;99.90;;;;;;5007872;28;20582;-59
2023/12/16 12:32:32;;;;;;;2.63;1.53;;;6.00;99.90;;;;;;5004131;28;20252;-60
2023/12/16 12:35:01;;;;;;;1.70;1.60;;;6.00;99.90;;;;;;5009932;28;20242;-59
2023/12/16 12:37:40;;;;;;;3.40;1.20;;;6.00;99.90;;;;;;5084943;27;20566;-59
2023/12/16 12:40:17;;;;;;;1.53;1.43;;;6.00;99.90;;;;;;5057096;28;20830;-60
2023/12/16 12:42:49;;;;;;;1.70;1.60;;;6.00;99.90;;;;;;5066773;28;20195;-60
2023/12/16 12:45:26;;;;;;;1.80;1.70;;;6.00;99.90;;;;;;5070670;22;20648;-61
2023/12/16 12:47:54;;;;;;;1.53;1.53;;;6.10;99.90;;;;;;5047194;28;20241;-61
2023/12/16 12:50:22;;;;;;;2.23;1.13;;;6.00;99.90;;;;;;5059479;28;20624;-61
2023/12/16 12:52:52;;;;;;;2.00;1.93;;;6.10;99.90;;;;;;5067665;28;20206;-63
2023/12/16 12:55:19;;;;;;;1.67;1.57;;;6.10;99.90;;;;;;5057843;28;20710;-62
2023/12/16 12:57:46;;;;;;;1.43;1.37;;;6.00;99.90;;;;;;5053653;28;20751;-63
2023/12/16 13:00:15;;;;;;;1.60;1.47;;;6.00;99.90;;;;;;5052800;28;20246;-61